sensor_id;sensor_type;location;lat;lon;timestamp;P1;durP1;ratioP1;P2;durP2;ratioP2
33403;SDS011;19751;40.274;18.268;2023-01-15T00:01:24;12.63;;;8.10;;
33403;SDS011;19751;40.274;18.268;2023-01-15T00:03:58;14.43;;;8.02;;
33403;SDS011;19751;40.274;18.268;2023-01-15T00:06:25;15.82;;;7.95;;
33403;SDS011;19751;40.274;18.268;2023-01-15T00:08:51;11.55;;;7.75;;
33403;SDS011;19751;40.274;18.268;2023-01-15T00:11:17;10.77;;;7.28;;
33403;SDS011;19751;40.274;18.268;2023-01-15T00:13:44;11.15;;;8.00;;
33403;SDS011;19751;40.274;18.268;2023-01-15T00:16:11;17.25;;;8.63;;
33403;SDS011;19751;40.274;18.268;2023-01-15T00:18:38;12.05;;;7.70;;
33403;SDS011;19751;40.274;18.268;2023-01-15T00:21:06;11.00;;;7.03;;
33403;SDS011;19751;40.274;18.268;2023-01-15T00:23:33;15.70;;;7.95;;
33403;SDS011;19751;40.274;18.268;2023-01-15T00:26:18;11.88;;;7.15;;
33403;SDS011;19751;40.274;18.268;2023-01-15T00:29:05;16.02;;;9.30;;
33403;SDS011;19751;40.274;18.268;2023-01-15T00:31:31;13.27;;;9.30;;
33403;SDS011;19751;40.274;18.268;2023-01-15T00:33:59;13.90;;;8.75;;
33403;SDS011;19751;40.274;18.268;2023-01-15T00:36:25;13.75;;;7.47;;
33403;SDS011;19751;40.274;18.268;2023-01-15T00:38:51;12.30;;;8.52;;
33403;SDS011;19751;40.274;18.268;2023-01-15T00:41:17;15.13;;;8.43;;
33403;SDS011;19751;40.274;18.268;2023-01-15T00:43:42;15.15;;;8.18;;
33403;SDS011;19751;40.274;18.268;2023-01-15T00:46:08;12.02;;;8.55;;
33403;SDS011;19751;40.274;18.268;2023-01-15T00:48:34;13.27;;;8.55;;
33403;SDS011;19751;40.274;18.268;2023-01-15T00:51:00;12.27;;;8.88;;
33403;SDS011;19751;40.274;18.268;2023-01-15T00:53:26;10.80;;;7.45;;
33403;SDS011;19751;40.274;18.268;2023-01-15T00:55:52;14.15;;;6.95;;
33403;SDS011;19751;40.274;18.268;2023-01-15T00:58:17;17.23;;;8.20;;
33403;SDS011;19751;40.274;18.268;2023-01-15T01:00:43;17.63;;;9.20;;
33403;SDS011;19751;40.274;18.268;2023-01-15T01:03:08;17.38;;;9.00;;
33403;SDS011;19751;40.274;18.268;2023-01-15T01:05:34;14.60;;;9.32;;
33403;SDS011;19751;40.274;18.268;2023-01-15T01:07:59;10.52;;;7.32;;
33403;SDS011;19751;40.274;18.268;2023-01-15T01:10:25;10.95;;;7.93;;
33403;SDS011;19751;40.274;18.268;2023-01-15T01:12:51;13.40;;;8.50;;
33403;SDS011;19751;40.274;18.268;2023-01-15T01:15:20;18.80;;;9.68;;
33403;SDS011;19751;40.274;18.268;2023-01-15T01:17:47;12.10;;;7.60;;
33403;SDS011;19751;40.274;18.268;2023-01-15T01:20:13;14.20;;;8.00;;
33403;SDS011;19751;40.274;18.268;2023-01-15T01:22:40;14.20;;;8.05;;
33403;SDS011;19751;40.274;18.268;2023-01-15T01:25:13;12.82;;;8.93;;
33403;SDS011;19751;40.274;18.268;2023-01-15T01:27:38;12.90;;;7.40;;
33403;SDS011;19751;40.274;18.268;2023-01-15T01:30:04;12.88;;;7.18;;
33403;SDS011;19751;40.274;18.268;2023-01-15T01:32:30;14.95;;;8.93;;
33403;SDS011;19751;40.274;18.268;2023-01-15T01:34:55;13.35;;;8.43;;
33403;SDS011;19751;40.274;18.268;2023-01-15T01:37:21;11.95;;;7.97;;
33403;SDS011;19751;40.274;18.268;2023-01-15T01:39:46;12.77;;;7.85;;
33403;SDS011;19751;40.274;18.268;2023-01-15T01:42:13;12.25;;;7.68;;
33403;SDS011;19751;40.274;18.268;2023-01-15T01:47:10;14.38;;;9.82;;
33403;SDS011;19751;40.274;18.268;2023-01-15T01:49:39;15.43;;;7.90;;
33403;SDS011;19751;40.274;18.268;2023-01-15T01:52:09;14.35;;;8.63;;
33403;SDS011;19751;40.274;18.268;2023-01-15T01:54:39;13.18;;;8.57;;
33403;SDS011;19751;40.274;18.268;2023-01-15T01:57:06;16.17;;;8.65;;
33403;SDS011;19751;40.274;18.268;2023-01-15T01:59:33;13.93;;;8.82;;
33403;SDS011;19751;40.274;18.268;2023-01-15T02:02:00;12.70;;;8.55;;
33403;SDS011;19751;40.274;18.268;2023-01-15T02:04:26;14.77;;;8.13;;
33403;SDS011;19751;40.274;18.268;2023-01-15T02:06:53;11.52;;;8.18;;
33403;SDS011;19751;40.274;18.268;2023-01-15T02:09:19;12.38;;;8.10;;
33403;SDS011;19751;40.274;18.268;2023-01-15T02:11:45;15.05;;;8.30;;
33403;SDS011;19751;40.274;18.268;2023-01-15T02:15:02;11.70;;;7.15;;
33403;SDS011;19751;40.274;18.268;2023-01-15T02:17:32;12.50;;;8.45;;
33403;SDS011;19751;40.274;18.268;2023-01-15T02:20:28;11.40;;;8.40;;
33403;SDS011;19751;40.274;18.268;2023-01-15T02:28:44;12.85;;;7.47;;
33403;SDS011;19751;40.274;18.268;2023-01-15T02:31:14;11.50;;;8.18;;
33403;SDS011;19751;40.274;18.268;2023-01-15T02:33:54;9.65;;;7.85;;
33403;SDS011;19751;40.274;18.268;2023-01-15T02:36:25;12.68;;;7.95;;
33403;SDS011;19751;40.274;18.268;2023-01-15T02:38:54;19.10;;;8.18;;
33403;SDS011;19751;40.274;18.268;2023-01-15T02:41:24;16.48;;;8.25;;
33403;SDS011;19751;40.274;18.268;2023-01-15T02:43:54;19.52;;;8.20;;
33403;SDS011;19751;40.274;18.268;2023-01-15T02:46:23;12.20;;;7.32;;
33403;SDS011;19751;40.274;18.268;2023-01-15T02:48:51;9.65;;;6.53;;
33403;SDS011;19751;40.274;18.268;2023-01-15T02:51:21;14.02;;;7.68;;
33403;SDS011;19751;40.274;18.268;2023-01-15T02:53:50;11.73;;;7.60;;
33403;SDS011;19751;40.274;18.268;2023-01-15T02:56:22;16.55;;;8.50;;
33403;SDS011;19751;40.274;18.268;2023-01-15T02:58:53;13.02;;;7.90;;
33403;SDS011;19751;40.274;18.268;2023-01-15T03:01:45;12.48;;;8.20;;
33403;SDS011;19751;40.274;18.268;2023-01-15T03:04:14;15.73;;;8.70;;
33403;SDS011;19751;40.274;18.268;2023-01-15T03:09:33;14.75;;;8.10;;
33403;SDS011;19751;40.274;18.268;2023-01-15T03:12:04;11.25;;;8.23;;
33403;SDS011;19751;40.274;18.268;2023-01-15T03:14:47;14.07;;;7.72;;
33403;SDS011;19751;40.274;18.268;2023-01-15T03:17:47;12.95;;;7.95;;
33403;SDS011;19751;40.274;18.268;2023-01-15T03:20:26;10.75;;;7.80;;
33403;SDS011;19751;40.274;18.268;2023-01-15T03:22:57;14.32;;;7.90;;
33403;SDS011;19751;40.274;18.268;2023-01-15T03:25:32;10.88;;;8.05;;
33403;SDS011;19751;40.274;18.268;2023-01-15T03:28:02;16.02;;;8.80;;
33403;SDS011;19751;40.274;18.268;2023-01-15T03:30:29;14.60;;;10.02;;
33403;SDS011;19751;40.274;18.268;2023-01-15T03:32:55;13.18;;;8.68;;
33403;SDS011;19751;40.274;18.268;2023-01-15T03:38:22;14.02;;;8.60;;
33403;SDS011;19751;40.274;18.268;2023-01-15T03:49:36;15.98;;;8.50;;
33403;SDS011;19751;40.274;18.268;2023-01-15T03:52:15;11.38;;;7.55;;
33403;SDS011;19751;40.274;18.268;2023-01-15T03:54:51;11.85;;;8.18;;
33403;SDS011;19751;40.274;18.268;2023-01-15T03:59:52;15.48;;;8.27;;
33403;SDS011;19751;40.274;18.268;2023-01-15T04:02:21;15.40;;;8.30;;
33403;SDS011;19751;40.274;18.268;2023-01-15T04:04:49;15.13;;;7.43;;
33403;SDS011;19751;40.274;18.268;2023-01-15T04:07:17;15.90;;;9.07;;
33403;SDS011;19751;40.274;18.268;2023-01-15T04:09:43;13.30;;;7.53;;
33403;SDS011;19751;40.274;18.268;2023-01-15T04:12:09;11.23;;;7.50;;
33403;SDS011;19751;40.274;18.268;2023-01-15T04:14:35;14.77;;;7.88;;
33403;SDS011;19751;40.274;18.268;2023-01-15T04:17:01;13.70;;;8.02;;
33403;SDS011;19751;40.274;18.268;2023-01-15T04:19:26;13.13;;;7.40;;
33403;SDS011;19751;40.274;18.268;2023-01-15T04:21:52;12.00;;;7.32;;
33403;SDS011;19751;40.274;18.268;2023-01-15T04:24:17;10.68;;;7.40;;
33403;SDS011;19751;40.274;18.268;2023-01-15T04:26:43;11.00;;;7.85;;
33403;SDS011;19751;40.274;18.268;2023-01-15T04:29:08;10.50;;;6.80;;
33403;SDS011;19751;40.274;18.268;2023-01-15T04:31:34;12.27;;;7.20;;
33403;SDS011;19751;40.274;18.268;2023-01-15T04:34:00;12.10;;;7.38;;
33403;SDS011;19751;40.274;18.268;2023-01-15T04:36:26;12.07;;;6.80;;
33403;SDS011;19751;40.274;18.268;2023-01-15T04:38:53;11.43;;;6.90;;
33403;SDS011;19751;40.274;18.268;2023-01-15T04:41:19;10.23;;;6.45;;
33403;SDS011;19751;40.274;18.268;2023-01-15T04:44:03;15.63;;;8.40;;
33403;SDS011;19751;40.274;18.268;2023-01-15T04:46:38;11.57;;;7.25;;
33403;SDS011;19751;40.274;18.268;2023-01-15T04:49:10;10.73;;;6.47;;
33403;SDS011;19751;40.274;18.268;2023-01-15T04:51:38;11.93;;;7.32;;
33403;SDS011;19751;40.274;18.268;2023-01-15T04:54:27;10.55;;;6.57;;
33403;SDS011;19751;40.274;18.268;2023-01-15T04:56:53;10.98;;;6.70;;
33403;SDS011;19751;40.274;18.268;2023-01-15T04:59:20;11.90;;;6.82;;
33403;SDS011;19751;40.274;18.268;2023-01-15T05:01:47;12.07;;;6.20;;
33403;SDS011;19751;40.274;18.268;2023-01-15T05:04:13;9.60;;;6.30;;
33403;SDS011;19751;40.274;18.268;2023-01-15T05:06:38;9.10;;;5.95;;
33403;SDS011;19751;40.274;18.268;2023-01-15T05:09:04;13.75;;;6.72;;
33403;SDS011;19751;40.274;18.268;2023-01-15T05:11:30;14.02;;;6.78;;
33403;SDS011;19751;40.274;18.268;2023-01-15T05:13:58;12.10;;;7.25;;
33403;SDS011;19751;40.274;18.268;2023-01-15T05:16:25;12.73;;;7.18;;
33403;SDS011;19751;40.274;18.268;2023-01-15T05:18:53;11.70;;;7.25;;
33403;SDS011;19751;40.274;18.268;2023-01-15T05:23:48;13.00;;;6.85;;
33403;SDS011;19751;40.274;18.268;2023-01-15T05:26:14;9.75;;;7.05;;
33403;SDS011;19751;40.274;18.268;2023-01-15T05:28:40;13.52;;;6.82;;
33403;SDS011;19751;40.274;18.268;2023-01-15T05:31:07;10.25;;;6.18;;
33403;SDS011;19751;40.274;18.268;2023-01-15T05:33:33;10.85;;;6.97;;
33403;SDS011;19751;40.274;18.268;2023-01-15T05:36:01;11.23;;;6.13;;
33403;SDS011;19751;40.274;18.268;2023-01-15T05:38:27;10.82;;;6.30;;
33403;SDS011;19751;40.274;18.268;2023-01-15T05:40:53;9.88;;;6.85;;
33403;SDS011;19751;40.274;18.268;2023-01-15T05:43:18;9.30;;;6.10;;
33403;SDS011;19751;40.274;18.268;2023-01-15T05:45:44;10.45;;;6.57;;
33403;SDS011;19751;40.274;18.268;2023-01-15T05:48:09;15.00;;;8.35;;
33403;SDS011;19751;40.274;18.268;2023-01-15T05:50:35;63.45;;;33.33;;
33403;SDS011;19751;40.274;18.268;2023-01-15T05:53:00;50.47;;;25.98;;
33403;SDS011;19751;40.274;18.268;2023-01-15T05:55:26;28.67;;;16.30;;
33403;SDS011;19751;40.274;18.268;2023-01-15T05:57:51;25.73;;;14.10;;
33403;SDS011;19751;40.274;18.268;2023-01-15T06:00:17;23.48;;;13.50;;
33403;SDS011;19751;40.274;18.268;2023-01-15T06:02:43;23.00;;;13.38;;
33403;SDS011;19751;40.274;18.268;2023-01-15T06:05:08;24.75;;;13.32;;
33403;SDS011;19751;40.274;18.268;2023-01-15T06:07:34;17.05;;;10.00;;
33403;SDS011;19751;40.274;18.268;2023-01-15T06:09:59;17.33;;;8.82;;
33403;SDS011;19751;40.274;18.268;2023-01-15T06:12:25;11.20;;;6.85;;
33403;SDS011;19751;40.274;18.268;2023-01-15T06:14:50;14.23;;;7.70;;
33403;SDS011;19751;40.274;18.268;2023-01-15T06:17:15;16.08;;;9.40;;
33403;SDS011;19751;40.274;18.268;2023-01-15T06:19:41;12.50;;;8.90;;
33403;SDS011;19751;40.274;18.268;2023-01-15T06:22:06;60.88;;;27.63;;
33403;SDS011;19751;40.274;18.268;2023-01-15T06:24:32;82.65;;;34.53;;
33403;SDS011;19751;40.274;18.268;2023-01-15T06:26:57;27.30;;;14.95;;
33403;SDS011;19751;40.274;18.268;2023-01-15T06:29:23;14.48;;;8.80;;
33403;SDS011;19751;40.274;18.268;2023-01-15T06:31:48;13.50;;;8.50;;
33403;SDS011;19751;40.274;18.268;2023-01-15T06:34:14;13.65;;;9.07;;
33403;SDS011;19751;40.274;18.268;2023-01-15T06:36:39;14.43;;;8.27;;
33403;SDS011;19751;40.274;18.268;2023-01-15T06:39:05;12.75;;;7.80;;
33403;SDS011;19751;40.274;18.268;2023-01-15T06:41:30;16.55;;;9.10;;
33403;SDS011;19751;40.274;18.268;2023-01-15T06:44:16;15.00;;;10.27;;
33403;SDS011;19751;40.274;18.268;2023-01-15T06:47:02;16.58;;;11.13;;
33403;SDS011;19751;40.274;18.268;2023-01-15T06:49:55;15.40;;;10.40;;
33403;SDS011;19751;40.274;18.268;2023-01-15T06:52:22;15.10;;;10.18;;
33403;SDS011;19751;40.274;18.268;2023-01-15T06:54:49;12.55;;;9.63;;
33403;SDS011;19751;40.274;18.268;2023-01-15T06:57:14;22.23;;;13.07;;
33403;SDS011;19751;40.274;18.268;2023-01-15T06:59:48;20.55;;;13.02;;
33403;SDS011;19751;40.274;18.268;2023-01-15T07:02:14;30.02;;;16.15;;
33403;SDS011;19751;40.274;18.268;2023-01-15T07:04:41;30.10;;;16.83;;
33403;SDS011;19751;40.274;18.268;2023-01-15T07:07:07;22.38;;;14.65;;
33403;SDS011;19751;40.274;18.268;2023-01-15T07:09:32;24.63;;;14.35;;
33403;SDS011;19751;40.274;18.268;2023-01-15T07:11:58;17.50;;;11.07;;
33403;SDS011;19751;40.274;18.268;2023-01-15T07:14:24;13.95;;;9.48;;
33403;SDS011;19751;40.274;18.268;2023-01-15T07:16:52;16.95;;;11.07;;
33403;SDS011;19751;40.274;18.268;2023-01-15T07:19:18;14.88;;;10.38;;
33403;SDS011;19751;40.274;18.268;2023-01-15T07:21:45;13.60;;;8.75;;
33403;SDS011;19751;40.274;18.268;2023-01-15T07:24:10;17.13;;;10.13;;
33403;SDS011;19751;40.274;18.268;2023-01-15T07:26:37;14.27;;;10.27;;
33403;SDS011;19751;40.274;18.268;2023-01-15T07:29:04;11.80;;;7.97;;
33403;SDS011;19751;40.274;18.268;2023-01-15T07:31:30;13.43;;;8.73;;
33403;SDS011;19751;40.274;18.268;2023-01-15T07:33:55;12.48;;;8.48;;
33403;SDS011;19751;40.274;18.268;2023-01-15T07:36:21;13.35;;;8.60;;
33403;SDS011;19751;40.274;18.268;2023-01-15T07:38:50;16.45;;;10.32;;
33403;SDS011;19751;40.274;18.268;2023-01-15T07:41:16;16.30;;;8.95;;
33403;SDS011;19751;40.274;18.268;2023-01-15T07:44:00;15.32;;;9.52;;
33403;SDS011;19751;40.274;18.268;2023-01-15T07:46:44;13.75;;;9.45;;
33403;SDS011;19751;40.274;18.268;2023-01-15T07:49:28;17.52;;;9.10;;
33403;SDS011;19751;40.274;18.268;2023-01-15T07:52:19;10.60;;;7.95;;
33403;SDS011;19751;40.274;18.268;2023-01-15T07:54:46;11.60;;;6.93;;
33403;SDS011;19751;40.274;18.268;2023-01-15T07:57:15;13.77;;;8.13;;
33403;SDS011;19751;40.274;18.268;2023-01-15T07:59:43;12.48;;;8.60;;
33403;SDS011;19751;40.274;18.268;2023-01-15T08:02:09;14.18;;;7.65;;
33403;SDS011;19751;40.274;18.268;2023-01-15T08:04:34;15.48;;;8.90;;
33403;SDS011;19751;40.274;18.268;2023-01-15T08:07:00;12.57;;;8.48;;
33403;SDS011;19751;40.274;18.268;2023-01-15T08:09:27;12.73;;;7.60;;
33403;SDS011;19751;40.274;18.268;2023-01-15T08:11:54;12.13;;;8.02;;
33403;SDS011;19751;40.274;18.268;2023-01-15T08:14:38;13.40;;;8.13;;
33403;SDS011;19751;40.274;18.268;2023-01-15T08:19:48;26.10;;;16.48;;
33403;SDS011;19751;40.274;18.268;2023-01-15T08:22:13;12.07;;;9.48;;
33403;SDS011;19751;40.274;18.268;2023-01-15T08:24:39;9.95;;;6.95;;
33403;SDS011;19751;40.274;18.268;2023-01-15T08:27:04;12.25;;;7.32;;
33403;SDS011;19751;40.274;18.268;2023-01-15T08:29:30;13.25;;;8.93;;
33403;SDS011;19751;40.274;18.268;2023-01-15T08:31:56;16.30;;;10.00;;
33403;SDS011;19751;40.274;18.268;2023-01-15T08:34:21;13.43;;;8.23;;
33403;SDS011;19751;40.274;18.268;2023-01-15T08:36:48;15.32;;;8.73;;
33403;SDS011;19751;40.274;18.268;2023-01-15T08:39:13;15.20;;;8.50;;
33403;SDS011;19751;40.274;18.268;2023-01-15T08:41:39;13.27;;;8.63;;
33403;SDS011;19751;40.274;18.268;2023-01-15T08:44:05;12.27;;;7.57;;
33403;SDS011;19751;40.274;18.268;2023-01-15T08:46:30;13.48;;;7.88;;
33403;SDS011;19751;40.274;18.268;2023-01-15T08:48:56;13.48;;;8.52;;
33403;SDS011;19751;40.274;18.268;2023-01-15T08:51:21;13.05;;;9.30;;
33403;SDS011;19751;40.274;18.268;2023-01-15T08:53:47;12.75;;;8.93;;
33403;SDS011;19751;40.274;18.268;2023-01-15T08:56:13;15.23;;;9.63;;
33403;SDS011;19751;40.274;18.268;2023-01-15T08:58:40;14.25;;;8.65;;
33403;SDS011;19751;40.274;18.268;2023-01-15T09:01:06;16.67;;;8.73;;
33403;SDS011;19751;40.274;18.268;2023-01-15T09:03:33;13.43;;;8.88;;
33403;SDS011;19751;40.274;18.268;2023-01-15T09:06:00;16.60;;;9.10;;
33403;SDS011;19751;40.274;18.268;2023-01-15T09:08:27;11.38;;;6.93;;
33403;SDS011;19751;40.274;18.268;2023-01-15T09:11:00;9.27;;;6.47;;
33403;SDS011;19751;40.274;18.268;2023-01-15T09:13:27;9.32;;;6.38;;
33403;SDS011;19751;40.274;18.268;2023-01-15T09:15:53;10.68;;;6.88;;
33403;SDS011;19751;40.274;18.268;2023-01-15T09:18:23;8.18;;;6.15;;
33403;SDS011;19751;40.274;18.268;2023-01-15T09:20:48;8.02;;;5.45;;
33403;SDS011;19751;40.274;18.268;2023-01-15T09:23:14;9.00;;;6.35;;
33403;SDS011;19751;40.274;18.268;2023-01-15T09:25:40;10.63;;;7.75;;
33403;SDS011;19751;40.274;18.268;2023-01-15T09:28:17;12.13;;;7.03;;
33403;SDS011;19751;40.274;18.268;2023-01-15T09:30:42;9.38;;;5.80;;
33403;SDS011;19751;40.274;18.268;2023-01-15T09:33:08;14.75;;;7.53;;
33403;SDS011;19751;40.274;18.268;2023-01-15T09:35:35;12.48;;;6.65;;
33403;SDS011;19751;40.274;18.268;2023-01-15T09:38:00;6.93;;;5.32;;
33403;SDS011;19751;40.274;18.268;2023-01-15T09:40:39;10.90;;;5.55;;
33403;SDS011;19751;40.274;18.268;2023-01-15T09:45:56;8.77;;;5.15;;
33403;SDS011;19751;40.274;18.268;2023-01-15T09:57:09;16.58;;;6.72;;
33403;SDS011;19751;40.274;18.268;2023-01-15T09:59:38;10.93;;;6.57;;
33403;SDS011;19751;40.274;18.268;2023-01-15T10:02:50;8.40;;;4.38;;
33403;SDS011;19751;40.274;18.268;2023-01-15T10:05:17;6.80;;;4.75;;
33403;SDS011;19751;40.274;18.268;2023-01-15T10:08:01;5.97;;;4.32;;
33403;SDS011;19751;40.274;18.268;2023-01-15T10:10:49;5.45;;;3.65;;
33403;SDS011;19751;40.274;18.268;2023-01-15T10:14:02;7.28;;;4.80;;
33403;SDS011;19751;40.274;18.268;2023-01-15T10:16:11;8.10;;;5.05;;
33403;SDS011;19751;40.274;18.268;2023-01-15T10:18:43;6.03;;;4.18;;
33403;SDS011;19751;40.274;18.268;2023-01-15T10:21:26;6.63;;;4.47;;
33403;SDS011;19751;40.274;18.268;2023-01-15T10:47:48;5.35;;;4.00;;
33403;SDS011;19751;40.274;18.268;2023-01-15T10:50:20;4.53;;;3.25;;
33403;SDS011;19751;40.274;18.268;2023-01-15T10:55:54;5.85;;;3.47;;
33403;SDS011;19751;40.274;18.268;2023-01-15T10:58:31;5.85;;;3.17;;
33403;SDS011;19751;40.274;18.268;2023-01-15T11:01:20;3.72;;;3.10;;
33403;SDS011;19751;40.274;18.268;2023-01-15T11:03:50;4.75;;;3.13;;
33403;SDS011;19751;40.274;18.268;2023-01-15T11:06:20;3.28;;;2.97;;
33403;SDS011;19751;40.274;18.268;2023-01-15T11:08:51;5.45;;;3.47;;
33403;SDS011;19751;40.274;18.268;2023-01-15T11:17:22;4.35;;;3.50;;
33403;SDS011;19751;40.274;18.268;2023-01-15T11:20:32;4.82;;;3.65;;
33403;SDS011;19751;40.274;18.268;2023-01-15T11:23:17;5.95;;;3.10;;
33403;SDS011;19751;40.274;18.268;2023-01-15T11:25:52;4.50;;;3.00;;
33403;SDS011;19751;40.274;18.268;2023-01-15T11:28:34;4.03;;;2.85;;
33403;SDS011;19751;40.274;18.268;2023-01-15T11:31:01;4.28;;;2.65;;
33403;SDS011;19751;40.274;18.268;2023-01-15T11:33:28;4.03;;;3.00;;
33403;SDS011;19751;40.274;18.268;2023-01-15T11:35:56;3.38;;;2.58;;
33403;SDS011;19751;40.274;18.268;2023-01-15T11:38:28;3.45;;;2.95;;
33403;SDS011;19751;40.274;18.268;2023-01-15T11:40:57;6.40;;;4.22;;
33403;SDS011;19751;40.274;18.268;2023-01-15T11:43:27;4.97;;;3.75;;
33403;SDS011;19751;40.274;18.268;2023-01-15T11:49:29;4.00;;;2.75;;
33403;SDS011;19751;40.274;18.268;2023-01-15T11:52:18;2.97;;;1.88;;
33403;SDS011;19751;40.274;18.268;2023-01-15T11:54:48;2.92;;;2.42;;
33403;SDS011;19751;40.274;18.268;2023-01-15T11:57:27;2.35;;;2.15;;
33403;SDS011;19751;40.274;18.268;2023-01-15T11:59:56;2.90;;;2.05;;
33403;SDS011;19751;40.274;18.268;2023-01-15T12:05:28;3.17;;;2.17;;
33403;SDS011;19751;40.274;18.268;2023-01-15T12:08:09;3.35;;;2.20;;
33403;SDS011;19751;40.274;18.268;2023-01-15T12:10:51;2.10;;;1.88;;
33403;SDS011;19751;40.274;18.268;2023-01-15T12:13:37;3.10;;;2.50;;
33403;SDS011;19751;40.274;18.268;2023-01-15T12:16:21;3.35;;;2.58;;
33403;SDS011;19751;40.274;18.268;2023-01-15T12:18:57;3.50;;;2.58;;
33403;SDS011;19751;40.274;18.268;2023-01-15T12:29:43;8.00;;;2.67;;
33403;SDS011;19751;40.274;18.268;2023-01-15T12:32:17;2.92;;;2.63;;
33403;SDS011;19751;40.274;18.268;2023-01-15T12:34:50;4.13;;;1.88;;
33403;SDS011;19751;40.274;18.268;2023-01-15T12:37:29;2.70;;;2.45;;
33403;SDS011;19751;40.274;18.268;2023-01-15T12:40:17;5.63;;;3.45;;
33403;SDS011;19751;40.274;18.268;2023-01-15T12:42:47;4.50;;;2.55;;
33403;SDS011;19751;40.274;18.268;2023-01-15T12:45:40;3.67;;;2.67;;
33403;SDS011;19751;40.274;18.268;2023-01-15T12:51:00;4.72;;;3.08;;
33403;SDS011;19751;40.274;18.268;2023-01-15T12:56:20;3.88;;;2.38;;
33403;SDS011;19751;40.274;18.268;2023-01-15T12:58:51;2.25;;;2.00;;
33403;SDS011;19751;40.274;18.268;2023-01-15T13:04:27;3.45;;;2.53;;
33403;SDS011;19751;40.274;18.268;2023-01-15T13:07:13;4.07;;;2.75;;
33403;SDS011;19751;40.274;18.268;2023-01-15T13:12:39;3.33;;;2.47;;
33403;SDS011;19751;40.274;18.268;2023-01-15T13:15:04;4.35;;;3.10;;
33403;SDS011;19751;40.274;18.268;2023-01-15T13:31:36;2.83;;;2.40;;
33403;SDS011;19751;40.274;18.268;2023-01-15T13:34:18;2.97;;;2.35;;
33403;SDS011;19751;40.274;18.268;2023-01-15T13:37:15;4.32;;;2.35;;
33403;SDS011;19751;40.274;18.268;2023-01-15T13:39:42;3.25;;;2.55;;
33403;SDS011;19751;40.274;18.268;2023-01-15T13:42:20;3.70;;;2.90;;
33403;SDS011;19751;40.274;18.268;2023-01-15T13:44:56;3.00;;;2.70;;
33403;SDS011;19751;40.274;18.268;2023-01-15T13:47:27;5.82;;;3.10;;
33403;SDS011;19751;40.274;18.268;2023-01-15T13:49:56;4.15;;;2.80;;
33403;SDS011;19751;40.274;18.268;2023-01-15T13:54:59;4.60;;;2.45;;
33403;SDS011;19751;40.274;18.268;2023-01-15T13:57:33;4.10;;;3.28;;
33403;SDS011;19751;40.274;18.268;2023-01-15T14:00:02;3.53;;;2.47;;
33403;SDS011;19751;40.274;18.268;2023-01-15T14:02:30;3.70;;;2.40;;
33403;SDS011;19751;40.274;18.268;2023-01-15T14:04:58;4.80;;;3.10;;
33403;SDS011;19751;40.274;18.268;2023-01-15T14:15:36;4.47;;;3.80;;
33403;SDS011;19751;40.274;18.268;2023-01-15T14:32:08;5.90;;;4.45;;
33403;SDS011;19751;40.274;18.268;2023-01-15T14:34:42;4.70;;;3.88;;
33403;SDS011;19751;40.274;18.268;2023-01-15T14:39:40;6.22;;;3.60;;
33403;SDS011;19751;40.274;18.268;2023-01-15T14:42:14;8.35;;;4.25;;
33403;SDS011;19751;40.274;18.268;2023-01-15T14:47:43;7.05;;;4.35;;
33403;SDS011;19751;40.274;18.268;2023-01-15T14:52:49;4.97;;;3.67;;
33403;SDS011;19751;40.274;18.268;2023-01-15T14:55:16;5.38;;;3.53;;
33403;SDS011;19751;40.274;18.268;2023-01-15T14:57:45;5.90;;;4.10;;
33403;SDS011;19751;40.274;18.268;2023-01-15T15:00:18;6.05;;;3.58;;
33403;SDS011;19751;40.274;18.268;2023-01-15T15:02:46;5.88;;;3.63;;
33403;SDS011;19751;40.274;18.268;2023-01-15T15:05:14;5.80;;;3.67;;
33403;SDS011;19751;40.274;18.268;2023-01-15T15:07:42;4.20;;;3.35;;
33403;SDS011;19751;40.274;18.268;2023-01-15T15:15:34;4.47;;;3.13;;
33403;SDS011;19751;40.274;18.268;2023-01-15T15:23:19;4.63;;;3.30;;
33403;SDS011;19751;40.274;18.268;2023-01-15T15:25:58;4.75;;;3.83;;
33403;SDS011;19751;40.274;18.268;2023-01-15T15:28:25;6.60;;;3.70;;
33403;SDS011;19751;40.274;18.268;2023-01-15T15:30:51;8.20;;;4.60;;
33403;SDS011;19751;40.274;18.268;2023-01-15T15:33:23;8.02;;;5.00;;
33403;SDS011;19751;40.274;18.268;2023-01-15T15:35:54;8.85;;;4.60;;
33403;SDS011;19751;40.274;18.268;2023-01-15T15:38:22;9.57;;;5.40;;
33403;SDS011;19751;40.274;18.268;2023-01-15T15:40:52;7.93;;;5.03;;
33403;SDS011;19751;40.274;18.268;2023-01-15T15:43:38;12.82;;;7.00;;
33403;SDS011;19751;40.274;18.268;2023-01-15T15:46:31;15.90;;;10.18;;
33403;SDS011;19751;40.274;18.268;2023-01-15T15:49:16;16.35;;;10.27;;
33403;SDS011;19751;40.274;18.268;2023-01-15T15:51:53;20.23;;;12.15;;
33403;SDS011;19751;40.274;18.268;2023-01-15T15:56:58;15.57;;;11.80;;
33403;SDS011;19751;40.274;18.268;2023-01-15T15:59:46;29.02;;;20.75;;
33403;SDS011;19751;40.274;18.268;2023-01-15T16:04:47;23.45;;;16.33;;
33403;SDS011;19751;40.274;18.268;2023-01-15T16:07:22;23.88;;;16.23;;
33403;SDS011;19751;40.274;18.268;2023-01-15T16:09:55;19.65;;;15.07;;
33403;SDS011;19751;40.274;18.268;2023-01-15T16:12:23;21.05;;;16.20;;
33403;SDS011;19751;40.274;18.268;2023-01-15T16:14:52;22.30;;;16.58;;
33403;SDS011;19751;40.274;18.268;2023-01-15T16:17:19;23.55;;;16.80;;
33403;SDS011;19751;40.274;18.268;2023-01-15T16:19:45;23.65;;;15.65;;
33403;SDS011;19751;40.274;18.268;2023-01-15T16:22:13;20.85;;;15.13;;
33403;SDS011;19751;40.274;18.268;2023-01-15T16:24:41;19.08;;;13.40;;
33403;SDS011;19751;40.274;18.268;2023-01-15T16:27:17;21.20;;;14.50;;
33403;SDS011;19751;40.274;18.268;2023-01-15T16:29:49;23.20;;;15.38;;
33403;SDS011;19751;40.274;18.268;2023-01-15T16:32:19;28.05;;;17.40;;
33403;SDS011;19751;40.274;18.268;2023-01-15T16:34:56;26.67;;;18.67;;
33403;SDS011;19751;40.274;18.268;2023-01-15T16:37:38;35.47;;;21.73;;
33403;SDS011;19751;40.274;18.268;2023-01-15T16:40:04;35.60;;;23.35;;
33403;SDS011;19751;40.274;18.268;2023-01-15T16:45:18;36.53;;;24.80;;
33403;SDS011;19751;40.274;18.268;2023-01-15T16:50:53;21.20;;;14.80;;
33403;SDS011;19751;40.274;18.268;2023-01-15T16:56:00;14.13;;;10.68;;
33403;SDS011;19751;40.274;18.268;2023-01-15T16:58:33;24.55;;;16.88;;
33403;SDS011;19751;40.274;18.268;2023-01-15T17:01:00;25.02;;;17.27;;
33403;SDS011;19751;40.274;18.268;2023-01-15T17:03:45;22.55;;;15.32;;
33403;SDS011;19751;40.274;18.268;2023-01-15T17:06:11;19.85;;;13.85;;
33403;SDS011;19751;40.274;18.268;2023-01-15T17:08:42;17.13;;;12.80;;
33403;SDS011;19751;40.274;18.268;2023-01-15T17:11:20;18.77;;;13.70;;
33403;SDS011;19751;40.274;18.268;2023-01-15T17:13:49;25.25;;;16.90;;
33403;SDS011;19751;40.274;18.268;2023-01-15T17:16:18;23.25;;;17.10;;
33403;SDS011;19751;40.274;18.268;2023-01-15T17:18:46;21.58;;;15.55;;
33403;SDS011;19751;40.274;18.268;2023-01-15T17:21:19;17.95;;;14.27;;
33403;SDS011;19751;40.274;18.268;2023-01-15T17:23:51;22.35;;;14.98;;
33403;SDS011;19751;40.274;18.268;2023-01-15T17:26:18;19.80;;;13.38;;
33403;SDS011;19751;40.274;18.268;2023-01-15T17:28:46;20.65;;;12.80;;
33403;SDS011;19751;40.274;18.268;2023-01-15T17:31:21;21.00;;;13.60;;
33403;SDS011;19751;40.274;18.268;2023-01-15T17:33:49;19.40;;;13.55;;
33403;SDS011;19751;40.274;18.268;2023-01-15T17:36:15;22.75;;;15.52;;